createdAt,value
2023-01-19T00:00:49.595Z,11.03
2023-01-19T00:03:17.972Z,10.92
2023-01-19T00:05:45.636Z,11.17
2023-01-19T00:08:16.019Z,11.05
2023-01-19T00:10:45.898Z,10.94
2023-01-19T00:13:14.399Z,11.53
2023-01-19T00:15:41.991Z,12.01
2023-01-19T00:18:10.939Z,12.36
2023-01-19T00:20:39.586Z,11.93
2023-01-19T00:23:08.251Z,12.25
2023-01-19T00:25:42.279Z,12.93
2023-01-19T00:28:14.302Z,12.74
2023-01-19T00:30:43.561Z,12.27
2023-01-19T00:33:13.767Z,11.53
2023-01-19T00:35:44.506Z,11.92
2023-01-19T00:38:12.624Z,12.46
2023-01-19T00:40:40.066Z,12.34
2023-01-19T00:43:07.463Z,12.81
2023-01-19T00:45:35.278Z,11.07
2023-01-19T00:48:02.861Z,11.61
2023-01-19T00:50:31.648Z,11.54
2023-01-19T00:53:01.496Z,11.42
2023-01-19T00:55:30.406Z,12.54
2023-01-19T00:57:58.258Z,12.20
2023-01-19T01:00:26.529Z,11.66
2023-01-19T01:02:54.194Z,11.23
2023-01-19T01:05:22.420Z,11.76
2023-01-19T01:07:50.747Z,11.02
2023-01-19T01:10:24.205Z,11.63
2023-01-19T01:12:54.884Z,12.05
2023-01-19T01:15:27.056Z,11.65
2023-01-19T01:17:55.351Z,12.31
2023-01-19T01:20:27.889Z,12.37
2023-01-19T01:22:56.468Z,12.68
2023-01-19T01:25:25.351Z,12.70
2023-01-19T01:27:53.513Z,11.95
2023-01-19T01:30:21.647Z,10.87
2023-01-19T01:32:49.583Z,10.93
2023-01-19T01:35:17.367Z,11.90
2023-01-19T01:37:45.083Z,12.40
2023-01-19T01:40:18.376Z,12.29
2023-01-19T01:42:46.325Z,13.14
2023-01-19T01:45:29.731Z,11.94
2023-01-19T01:48:04.567Z,10.56
2023-01-19T01:50:34.329Z,11.35
2023-01-19T01:53:10.040Z,11.37
2023-01-19T01:55:41.345Z,10.57
2023-01-19T01:58:10.641Z,10.45
2023-01-19T02:00:58.015Z,10.46
2023-01-19T02:03:26.995Z,11.91
2023-01-19T02:05:57.706Z,11.29
2023-01-19T02:08:48.696Z,12.39
2023-01-19T02:11:35.152Z,10.49
2023-01-19T02:14:05.323Z,10.40
2023-01-19T02:16:34.133Z,8.16
2023-01-19T02:19:01.545Z,7.23
2023-01-19T02:21:37.990Z,8.78
2023-01-19T02:24:07.525Z,8.68
2023-01-19T02:26:43.330Z,8.07
2023-01-19T02:29:17.582Z,6.98
2023-01-19T02:31:45.498Z,6.64
2023-01-19T02:34:16.114Z,6.68
2023-01-19T02:37:07.514Z,8.61
2023-01-19T02:39:45.954Z,7.00
2023-01-19T02:42:23.615Z,8.19
2023-01-19T02:44:53.802Z,6.95
2023-01-19T02:47:21.238Z,8.88
2023-01-19T02:49:58.870Z,9.91
2023-01-19T02:52:27.326Z,9.81
2023-01-19T02:55:07.012Z,10.12
2023-01-19T02:57:56.540Z,10.49
2023-01-19T03:00:46.023Z,8.57
2023-01-19T03:03:28.155Z,10.48
2023-01-19T03:06:23.578Z,7.41
2023-01-19T03:08:56.305Z,9.12
2023-01-19T03:11:25.461Z,7.42
2023-01-19T03:13:56.644Z,7.26
2023-01-19T03:16:30.625Z,6.84
2023-01-19T03:19:07.002Z,6.95
2023-01-19T03:21:36.320Z,6.50
2023-01-19T03:24:06.750Z,6.05
2023-01-19T03:26:38.893Z,5.92
2023-01-19T03:29:07.408Z,7.82
2023-01-19T03:31:35.101Z,6.37
2023-01-19T03:34:06.865Z,7.06
2023-01-19T03:36:46.711Z,6.40
2023-01-19T03:39:18.163Z,5.32
2023-01-19T03:41:48.919Z,5.77
2023-01-19T03:44:16.946Z,6.24
2023-01-19T03:46:45.980Z,5.49
2023-01-19T03:49:13.867Z,7.01
2023-01-19T03:51:41.536Z,7.01
2023-01-19T03:54:10.597Z,6.52
2023-01-19T03:56:38.392Z,7.67
2023-01-19T03:59:06.124Z,6.88
2023-01-19T04:01:33.720Z,5.20
2023-01-19T04:04:01.473Z,5.40
2023-01-19T04:06:29.070Z,5.40
2023-01-19T04:08:56.501Z,5.11
2023-01-19T04:11:24.155Z,5.64
2023-01-19T04:13:51.723Z,5.58
2023-01-19T04:16:21.205Z,5.15
2023-01-19T04:18:49.855Z,6.53
2023-01-19T04:21:17.227Z,5.96
2023-01-19T04:23:46.017Z,5.47
2023-01-19T04:26:13.828Z,5.08
2023-01-19T04:28:42.592Z,6.74
2023-01-19T04:31:10.623Z,5.23
2023-01-19T04:33:38.392Z,6.46
2023-01-19T04:36:06.140Z,5.15
2023-01-19T04:38:33.634Z,6.85
2023-01-19T04:41:01.456Z,7.72
2023-01-19T04:43:29.157Z,9.39
2023-01-19T04:45:56.940Z,8.28
2023-01-19T04:48:24.690Z,9.36
2023-01-19T04:50:52.645Z,8.85
2023-01-19T04:53:20.056Z,9.05
2023-01-19T04:55:47.768Z,8.02
2023-01-19T04:58:15.786Z,5.84
2023-01-19T05:00:43.591Z,6.05
2023-01-19T05:03:11.420Z,5.98
2023-01-19T05:05:38.907Z,5.13
2023-01-19T05:08:06.299Z,4.91
2023-01-19T05:10:33.954Z,8.24
2023-01-19T05:13:01.744Z,8.73
2023-01-19T05:15:29.738Z,8.68
2023-01-19T05:17:58.131Z,9.79
2023-01-19T05:20:25.510Z,8.67
2023-01-19T05:22:53.555Z,8.76
2023-01-19T05:25:21.357Z,8.39
2023-01-19T05:27:48.972Z,9.27
2023-01-19T05:30:16.881Z,8.42
2023-01-19T05:32:44.574Z,8.08
2023-01-19T05:35:13.525Z,6.71
2023-01-19T05:37:41.039Z,6.85
2023-01-19T05:40:09.751Z,7.46
2023-01-19T05:42:37.297Z,10.07
2023-01-19T05:45:05.536Z,8.82
2023-01-19T05:47:34.038Z,9.40
2023-01-19T05:50:01.460Z,8.07
2023-01-19T05:52:28.890Z,8.49
2023-01-19T05:54:56.576Z,9.02
2023-01-19T05:57:24.079Z,6.44
2023-01-19T05:59:52.463Z,9.12
2023-01-19T06:02:20.212Z,9.16
2023-01-19T06:04:47.904Z,8.11
2023-01-19T06:07:15.343Z,8.24
2023-01-19T06:09:42.927Z,8.49
2023-01-19T06:12:10.591Z,8.41
2023-01-19T06:14:38.184Z,7.60
2023-01-19T06:17:06.728Z,7.07
2023-01-19T06:19:35.032Z,7.24
2023-01-19T06:22:02.840Z,6.96
2023-01-19T06:24:30.295Z,6.78
2023-01-19T06:26:57.947Z,6.03
2023-01-19T06:29:25.591Z,6.17
2023-01-19T06:31:53.598Z,6.14
2023-01-19T06:34:21.581Z,6.49
2023-01-19T06:36:49.018Z,6.93
2023-01-19T06:39:16.501Z,6.82
2023-01-19T06:41:44.174Z,6.36
2023-01-19T06:44:11.584Z,6.56
2023-01-19T06:46:39.075Z,6.80
2023-01-19T06:49:06.798Z,6.67
2023-01-19T06:51:34.259Z,7.29
2023-01-19T06:54:01.915Z,6.53
2023-01-19T06:56:29.855Z,6.09
2023-01-19T06:58:57.296Z,6.21
2023-01-19T07:01:24.905Z,5.81
2023-01-19T07:03:53.132Z,6.22
2023-01-19T07:06:20.808Z,5.32
2023-01-19T07:08:48.188Z,6.23
2023-01-19T07:11:24.590Z,6.71
2023-01-19T07:13:58.246Z,6.11
2023-01-19T07:16:26.155Z,6.27
2023-01-19T07:18:53.889Z,6.13
2023-01-19T07:21:22.068Z,7.11
2023-01-19T07:23:51.303Z,7.26
2023-01-19T07:26:21.293Z,7.63
2023-01-19T07:28:49.001Z,7.55
2023-01-19T07:31:17.978Z,6.44
2023-01-19T07:33:45.923Z,7.61
2023-01-19T07:36:13.701Z,8.40
2023-01-19T07:38:41.591Z,7.85
2023-01-19T07:41:09.980Z,8.87
2023-01-19T07:43:37.642Z,9.46
2023-01-19T07:46:06.437Z,9.81
2023-01-19T07:48:34.472Z,9.18
2023-01-19T07:51:10.446Z,7.68
2023-01-19T07:53:40.084Z,7.81
2023-01-19T07:56:07.913Z,9.64
2023-01-19T07:58:35.327Z,9.73
2023-01-19T08:01:11.450Z,9.36
2023-01-19T08:03:39.748Z,9.83
2023-01-19T08:06:07.747Z,7.60
2023-01-19T08:08:35.285Z,9.28
2023-01-19T08:11:03.227Z,10.14
2023-01-19T08:13:30.844Z,9.71
2023-01-19T08:15:58.319Z,9.90
2023-01-19T08:18:26.033Z,9.74
2023-01-19T08:20:53.453Z,10.20
2023-01-19T08:23:21.067Z,11.39
2023-01-19T08:25:49.081Z,10.70
2023-01-19T08:28:17.268Z,9.62
2023-01-19T08:30:45.212Z,10.21
2023-01-19T08:33:13.803Z,11.01
2023-01-19T08:35:43.164Z,11.51
2023-01-19T08:38:10.880Z,10.02
2023-01-19T08:40:39.800Z,11.07
2023-01-19T08:43:09.809Z,11.11
2023-01-19T08:45:38.327Z,9.55
2023-01-19T08:48:06.474Z,8.76
2023-01-19T08:50:34.698Z,9.60
2023-01-19T08:53:04.565Z,9.30
2023-01-19T08:55:34.048Z,9.12
2023-01-19T08:58:04.197Z,8.73
2023-01-19T09:00:34.313Z,8.63
2023-01-19T09:03:03.680Z,8.38
2023-01-19T09:05:35.872Z,8.55
2023-01-19T09:08:10.649Z,7.70
2023-01-19T09:10:39.194Z,6.78
2023-01-19T09:13:09.772Z,8.02
2023-01-19T09:15:38.547Z,9.25
2023-01-19T09:18:13.643Z,7.35
2023-01-19T09:20:42.814Z,7.97
2023-01-19T09:23:11.423Z,7.91
2023-01-19T09:25:40.124Z,7.89
2023-01-19T09:28:09.475Z,8.92
2023-01-19T09:30:38.673Z,8.08
2023-01-19T09:33:07.569Z,7.96
2023-01-19T09:35:35.277Z,7.87
2023-01-19T09:38:03.444Z,8.41
2023-01-19T09:40:31.833Z,7.98
2023-01-19T09:43:14.506Z,8.49
2023-01-19T09:45:52.104Z,7.02
2023-01-19T09:48:28.191Z,7.89
2023-01-19T09:50:57.526Z,8.52
2023-01-19T09:53:45.505Z,8.13
2023-01-19T09:56:15.679Z,7.62
2023-01-19T09:58:43.159Z,6.84
2023-01-19T10:01:35.115Z,7.05
2023-01-19T10:04:19.174Z,7.61
2023-01-19T10:06:48.561Z,6.85
2023-01-19T10:09:27.254Z,6.43
2023-01-19T10:12:01.138Z,7.16
2023-01-19T10:14:52.876Z,6.56
2023-01-19T10:17:39.102Z,5.86
2023-01-19T10:20:14.923Z,5.91
2023-01-19T10:22:49.911Z,6.03
2023-01-19T10:25:20.868Z,6.62
2023-01-19T10:27:48.424Z,6.53
2023-01-19T10:30:24.238Z,6.14
2023-01-19T10:32:52.226Z,6.43
2023-01-19T10:35:24.328Z,7.09
2023-01-19T10:38:02.205Z,7.31
2023-01-19T10:41:06.208Z,6.27
2023-01-19T10:43:33.834Z,6.02
2023-01-19T10:46:05.919Z,6.29
2023-01-19T10:48:39.270Z,6.01
2023-01-19T10:51:06.787Z,6.10
2023-01-19T10:53:34.709Z,6.19
2023-01-19T10:56:17.338Z,6.21
2023-01-19T10:58:45.166Z,6.07
2023-01-19T11:01:26.620Z,6.92
2023-01-19T11:03:57.079Z,7.39
2023-01-19T11:06:27.864Z,7.03
2023-01-19T11:09:20.603Z,6.55
2023-01-19T11:11:50.697Z,6.73
2023-01-19T11:14:21.112Z,6.55
2023-01-19T11:16:53.508Z,6.58
2023-01-19T11:19:30.293Z,6.38
2023-01-19T11:22:21.738Z,6.04
2023-01-19T11:24:49.709Z,5.53
2023-01-19T11:27:18.195Z,5.63
2023-01-19T11:29:48.888Z,5.56
2023-01-19T11:32:22.504Z,6.19
2023-01-19T11:34:50.496Z,5.69
2023-01-19T11:37:18.152Z,5.99
2023-01-19T11:39:47.960Z,5.54
2023-01-19T11:42:15.776Z,5.90
2023-01-19T11:44:48.671Z,6.31
2023-01-19T11:47:28.354Z,5.27
2023-01-19T11:49:56.029Z,5.10
2023-01-19T11:52:53.450Z,5.48
2023-01-19T11:55:49.063Z,5.17
2023-01-19T11:58:17.912Z,5.75
2023-01-19T12:01:07.925Z,6.14
2023-01-19T12:03:47.579Z,5.71
2023-01-19T12:06:26.055Z,5.63
2023-01-19T12:09:00.960Z,5.57
2023-01-19T12:11:34.777Z,5.05
2023-01-19T12:14:02.805Z,5.76
2023-01-19T12:16:33.045Z,6.35
2023-01-19T12:19:04.366Z,5.40
2023-01-19T12:21:32.469Z,5.59
2023-01-19T12:24:08.168Z,5.88
2023-01-19T12:26:38.521Z,6.26
2023-01-19T12:29:11.293Z,4.71
2023-01-19T12:31:42.936Z,4.17
2023-01-19T12:34:27.196Z,4.40
2023-01-19T12:36:59.496Z,4.29
2023-01-19T12:39:27.175Z,3.64
2023-01-19T12:42:24.263Z,4.17
2023-01-19T12:45:05.560Z,4.20
2023-01-19T12:47:33.747Z,5.05
2023-01-19T12:50:07.096Z,4.30
2023-01-19T12:52:47.939Z,5.11
2023-01-19T12:55:15.381Z,4.16
2023-01-19T12:57:58.649Z,5.42
2023-01-19T13:00:26.187Z,5.39
2023-01-19T13:03:03.878Z,4.79
2023-01-19T13:05:33.215Z,5.08
2023-01-19T13:08:10.231Z,4.69
2023-01-19T13:10:56.480Z,4.02
2023-01-19T13:13:25.654Z,4.98
2023-01-19T13:15:55.734Z,5.15
2023-01-19T13:18:28.563Z,6.19
2023-01-19T13:20:55.992Z,5.77
2023-01-19T13:23:26.343Z,4.91
2023-01-19T13:26:00.153Z,4.03
2023-01-19T13:28:46.970Z,4.81
2023-01-19T13:31:14.958Z,5.17
2023-01-19T13:33:56.588Z,4.78
2023-01-19T13:36:35.574Z,4.87
2023-01-19T13:39:06.850Z,5.23
2023-01-19T13:41:39.374Z,4.34
2023-01-19T13:44:17.038Z,4.39
2023-01-19T13:46:46.077Z,4.93
2023-01-19T13:49:21.044Z,3.46
2023-01-19T13:52:19.603Z,4.17
2023-01-19T13:54:48.585Z,3.17
2023-01-19T13:57:27.912Z,5.79
2023-01-19T14:00:17.075Z,5.15
2023-01-19T14:03:00.880Z,5.22
2023-01-19T14:05:28.284Z,4.81
2023-01-19T14:08:13.891Z,4.66
2023-01-19T14:10:45.814Z,4.74
2023-01-19T14:13:18.224Z,4.32
2023-01-19T14:15:47.675Z,4.89
2023-01-19T14:18:18.681Z,4.08
2023-01-19T14:20:56.314Z,4.93
2023-01-19T14:23:48.677Z,4.66
2023-01-19T14:26:38.253Z,5.14
2023-01-19T14:29:24.988Z,4.63
2023-01-19T14:32:01.651Z,4.74
2023-01-19T14:34:32.101Z,4.63
2023-01-19T14:37:00.351Z,4.47
2023-01-19T14:39:33.635Z,4.80
2023-01-19T14:42:04.471Z,4.10
2023-01-19T14:44:35.410Z,4.55
2023-01-19T14:47:04.657Z,4.87
2023-01-19T14:49:41.897Z,4.69
2023-01-19T14:52:26.141Z,4.72
2023-01-19T14:54:55.221Z,5.00
2023-01-19T14:57:23.183Z,4.49
2023-01-19T14:59:50.721Z,4.63
2023-01-19T15:02:21.360Z,3.86
2023-01-19T15:04:49.144Z,3.93
2023-01-19T15:07:19.219Z,3.56
2023-01-19T15:09:47.412Z,5.26
2023-01-19T15:12:17.463Z,5.25
2023-01-19T15:14:45.853Z,5.04
2023-01-19T15:17:18.288Z,4.44
2023-01-19T15:19:46.102Z,3.93
2023-01-19T15:22:13.769Z,5.27
2023-01-19T15:24:41.194Z,5.15
2023-01-19T15:27:12.372Z,5.32
2023-01-19T15:29:42.693Z,5.60
2023-01-19T15:32:14.755Z,5.36
2023-01-19T15:34:42.271Z,5.52
2023-01-19T15:37:10.250Z,4.97
2023-01-19T15:39:37.880Z,4.77
2023-01-19T15:42:10.703Z,5.14
2023-01-19T15:44:39.193Z,5.31
2023-01-19T15:47:06.760Z,5.26
2023-01-19T15:49:34.205Z,5.12
2023-01-19T15:52:01.878Z,5.82
2023-01-19T15:54:29.354Z,5.42
2023-01-19T15:56:56.883Z,4.91
2023-01-19T15:59:24.559Z,5.66
2023-01-19T16:01:53.042Z,5.15
2023-01-19T16:04:20.873Z,5.06
2023-01-19T16:06:50.059Z,5.04
2023-01-19T16:09:20.127Z,4.71
2023-01-19T16:11:48.254Z,5.06
2023-01-19T16:14:17.467Z,5.07
2023-01-19T16:16:46.211Z,4.44
2023-01-19T16:19:15.826Z,5.51
2023-01-19T16:21:44.232Z,3.73
2023-01-19T16:24:11.728Z,3.99
2023-01-19T16:26:39.464Z,4.97
2023-01-19T16:29:09.850Z,5.07
2023-01-19T16:31:39.004Z,3.45
2023-01-19T16:34:07.432Z,3.32
2023-01-19T16:36:36.664Z,3.26
2023-01-19T16:39:10.540Z,3.03
2023-01-19T16:41:38.567Z,3.70
2023-01-19T16:44:06.882Z,3.03
2023-01-19T16:46:37.239Z,3.19
2023-01-19T16:49:09.733Z,3.80
2023-01-19T16:51:37.653Z,3.66
2023-01-19T16:54:06.196Z,4.27
2023-01-19T16:56:33.959Z,3.30
2023-01-19T16:59:01.595Z,3.34
2023-01-19T17:01:30.102Z,4.52
2023-01-19T17:03:58.342Z,3.79
2023-01-19T17:06:26.359Z,4.50
2023-01-19T17:08:54.575Z,3.74
2023-01-19T17:11:29.166Z,3.93
2023-01-19T17:14:02.656Z,5.18
2023-01-19T17:16:32.425Z,5.06
2023-01-19T17:19:02.733Z,4.58
2023-01-19T17:21:33.012Z,4.38
2023-01-19T17:24:02.291Z,3.84
2023-01-19T17:26:31.566Z,3.49
2023-01-19T17:29:02.179Z,4.33
2023-01-19T17:31:35.347Z,4.40
2023-01-19T17:34:04.161Z,4.57
2023-01-19T17:36:35.155Z,3.76
2023-01-19T17:39:07.225Z,4.58
2023-01-19T17:41:36.646Z,4.51
2023-01-19T17:44:06.158Z,4.79
2023-01-19T17:46:38.559Z,3.51
2023-01-19T17:49:08.697Z,4.64
2023-01-19T17:51:37.379Z,4.90
2023-01-19T17:54:06.013Z,4.19
2023-01-19T17:56:38.897Z,3.87
2023-01-19T17:59:08.424Z,3.66
2023-01-19T18:01:41.456Z,4.38
2023-01-19T18:04:11.011Z,4.63
2023-01-19T18:06:40.856Z,3.97
2023-01-19T18:09:10.357Z,5.02
2023-01-19T18:11:39.314Z,4.16
2023-01-19T18:14:07.422Z,4.57
2023-01-19T18:16:36.709Z,5.09
2023-01-19T18:19:05.397Z,4.09
2023-01-19T18:21:34.706Z,5.02
2023-01-19T18:24:07.330Z,4.26
2023-01-19T18:26:38.181Z,4.39
2023-01-19T18:31:49.599Z,4.38
2023-01-19T18:34:19.073Z,4.75
2023-01-19T18:36:47.493Z,4.45
2023-01-19T18:39:15.964Z,4.60
2023-01-19T18:41:47.117Z,4.40
2023-01-19T18:44:15.528Z,4.88
2023-01-19T18:46:45.515Z,4.72
2023-01-19T18:49:14.602Z,4.31
2023-01-19T18:51:43.212Z,4.36
2023-01-19T18:54:12.380Z,3.60
2023-01-19T18:56:42.571Z,3.96
2023-01-19T18:59:12.521Z,4.14
2023-01-19T19:01:41.424Z,3.89
2023-01-19T19:04:12.845Z,3.41
2023-01-19T19:06:42.029Z,4.05
2023-01-19T19:09:13.883Z,4.17
2023-01-19T19:11:43.813Z,4.02
2023-01-19T19:14:12.487Z,3.21
2023-01-19T19:16:41.535Z,3.68
2023-01-19T19:19:13.127Z,3.46
2023-01-19T19:21:43.262Z,4.57
2023-01-19T19:24:13.957Z,4.74
2023-01-19T19:26:45.536Z,4.07
2023-01-19T19:29:15.019Z,4.07
2023-01-19T19:31:44.538Z,4.54
2023-01-19T19:34:13.257Z,4.43
2023-01-19T19:36:51.770Z,4.81
2023-01-19T19:39:20.537Z,4.08
2023-01-19T19:41:50.166Z,3.30
2023-01-19T19:44:19.033Z,3.89
2023-01-19T19:46:47.491Z,4.75
2023-01-19T19:49:21.860Z,4.51
2023-01-19T19:51:49.809Z,3.85
2023-01-19T19:54:20.140Z,3.87
2023-01-19T19:56:52.452Z,3.60
2023-01-19T19:59:21.658Z,4.01
2023-01-19T20:01:51.174Z,4.35
2023-01-19T20:04:21.816Z,4.32
2023-01-19T20:06:50.947Z,4.17
2023-01-19T20:09:23.911Z,3.89
2023-01-19T20:11:53.488Z,3.53
2023-01-19T20:14:25.548Z,3.89
2023-01-19T20:16:54.819Z,4.18
2023-01-19T20:19:23.597Z,3.66
2023-01-19T20:21:53.496Z,4.42
2023-01-19T20:24:22.563Z,4.82
2023-01-19T20:26:56.857Z,4.08
2023-01-19T20:29:25.946Z,3.61
2023-01-19T20:31:56.824Z,4.14
2023-01-19T20:34:29.519Z,4.62
2023-01-19T20:36:59.798Z,3.87
2023-01-19T20:39:33.717Z,3.90
2023-01-19T20:42:03.164Z,4.14
2023-01-19T20:44:32.173Z,3.87
2023-01-19T20:47:00.512Z,3.56
2023-01-19T20:49:30.728Z,3.14
2023-01-19T20:51:59.800Z,3.64
2023-01-19T20:54:30.238Z,3.83
2023-01-19T20:57:01.549Z,3.72
2023-01-19T20:59:31.836Z,3.82
2023-01-19T21:02:02.384Z,3.73
2023-01-19T21:04:31.712Z,3.46
2023-01-19T21:07:00.407Z,3.41
2023-01-19T21:09:28.661Z,3.37
2023-01-19T21:11:57.642Z,3.64
2023-01-19T21:14:26.834Z,3.18
2023-01-19T21:16:58.322Z,3.14
2023-01-19T21:19:29.872Z,3.40
2023-01-19T21:21:57.823Z,3.92
2023-01-19T21:24:27.991Z,3.04
2023-01-19T21:26:56.553Z,3.65
2023-01-19T21:29:24.891Z,3.58
2023-01-19T21:31:53.247Z,3.73
2023-01-19T21:34:20.801Z,4.05
2023-01-19T21:36:48.485Z,3.44
2023-01-19T21:39:17.414Z,3.39
2023-01-19T21:41:45.745Z,4.30
2023-01-19T21:44:13.922Z,4.73
2023-01-19T21:46:41.877Z,4.38
2023-01-19T21:49:15.741Z,4.19
2023-01-19T21:51:43.572Z,5.02
2023-01-19T21:54:11.043Z,5.28
2023-01-19T21:56:38.780Z,5.31
2023-01-19T21:59:06.605Z,6.10
2023-01-19T22:01:34.513Z,6.36
2023-01-19T22:04:02.254Z,6.67
2023-01-19T22:06:29.663Z,7.09
2023-01-19T22:08:58.391Z,7.85
2023-01-19T22:11:27.426Z,6.80
2023-01-19T22:13:54.956Z,6.04
2023-01-19T22:16:22.998Z,5.88
2023-01-19T22:18:57.576Z,5.71
2023-01-19T22:21:29.803Z,6.06
2023-01-19T22:23:59.295Z,6.47
2023-01-19T22:26:30.756Z,4.49
2023-01-19T22:29:00.343Z,5.31
2023-01-19T22:31:29.491Z,6.87
2023-01-19T22:33:57.334Z,7.40
2023-01-19T22:36:34.044Z,7.06
2023-01-19T22:39:05.193Z,6.48
2023-01-19T22:41:33.907Z,6.45
2023-01-19T22:44:03.710Z,7.13
2023-01-19T22:46:33.320Z,7.29
2023-01-19T22:49:01.036Z,6.25
2023-01-19T22:51:29.939Z,6.97
2023-01-19T22:53:57.654Z,6.22
2023-01-19T22:56:27.294Z,5.53
2023-01-19T22:58:55.139Z,4.99
2023-01-19T23:01:37.206Z,6.02
2023-01-19T23:04:05.944Z,6.18
2023-01-19T23:06:35.097Z,7.05
2023-01-19T23:09:05.778Z,6.86
2023-01-19T23:11:36.309Z,5.45
2023-01-19T23:14:04.747Z,5.81
2023-01-19T23:16:32.144Z,4.85
2023-01-19T23:19:00.184Z,4.79
2023-01-19T23:21:29.627Z,4.49
2023-01-19T23:23:59.323Z,4.09
2023-01-19T23:26:28.100Z,3.99
2023-01-19T23:28:57.660Z,3.91
2023-01-19T23:31:27.505Z,4.38
2023-01-19T23:33:57.671Z,4.20
2023-01-19T23:36:26.953Z,4.31
2023-01-19T23:38:57.146Z,5.11
2023-01-19T23:41:25.663Z,5.26
2023-01-19T23:43:53.065Z,5.58
2023-01-19T23:46:21.424Z,7.74
2023-01-19T23:48:49.029Z,7.50
2023-01-19T23:51:24.808Z,7.68
2023-01-19T23:53:52.824Z,7.06
2023-01-19T23:56:28.960Z,5.72
2023-01-19T23:59:02.201Z,5.26
